sensor_id;sensor_type;location;lat;lon;timestamp;P1;durP1;ratioP1;P2;durP2;ratioP2
1010;SDS011;494;48.744;10.106;2023-05-01T00:00:06;14.10;;;7.50;;
1010;SDS011;494;48.744;10.106;2023-05-01T00:02:39;14.43;;;7.70;;
1010;SDS011;494;48.744;10.106;2023-05-01T00:05:08;14.33;;;8.37;;
1010;SDS011;494;48.744;10.106;2023-05-01T00:07:37;13.47;;;7.60;;
1010;SDS011;494;48.744;10.106;2023-05-01T00:10:06;13.13;;;7.60;;
1010;SDS011;494;48.744;10.106;2023-05-01T00:12:36;16.97;;;8.80;;
1010;SDS011;494;48.744;10.106;2023-05-01T00:15:05;20.53;;;8.27;;
1010;SDS011;494;48.744;10.106;2023-05-01T00:17:38;14.90;;;8.00;;
1010;SDS011;494;48.744;10.106;2023-05-01T00:20:07;13.90;;;8.10;;
1010;SDS011;494;48.744;10.106;2023-05-01T00:22:37;15.50;;;7.30;;
1010;SDS011;494;48.744;10.106;2023-05-01T00:25:06;15.60;;;8.20;;
1010;SDS011;494;48.744;10.106;2023-05-01T00:27:36;14.30;;;7.77;;
1010;SDS011;494;48.744;10.106;2023-05-01T00:30:05;15.60;;;8.07;;
1010;SDS011;494;48.744;10.106;2023-05-01T00:32:37;14.40;;;8.50;;
1010;SDS011;494;48.744;10.106;2023-05-01T00:35:07;15.60;;;8.97;;
1010;SDS011;494;48.744;10.106;2023-05-01T00:37:36;14.97;;;8.73;;
1010;SDS011;494;48.744;10.106;2023-05-01T00:40:05;21.73;;;8.27;;
1010;SDS011;494;48.744;10.106;2023-05-01T00:42:36;15.80;;;7.80;;
1010;SDS011;494;48.744;10.106;2023-05-01T00:45:06;14.63;;;9.10;;
1010;SDS011;494;48.744;10.106;2023-05-01T00:47:37;15.73;;;7.77;;
1010;SDS011;494;48.744;10.106;2023-05-01T00:50:07;14.80;;;7.70;;
1010;SDS011;494;48.744;10.106;2023-05-01T00:52:37;15.07;;;7.50;;
1010;SDS011;494;48.744;10.106;2023-05-01T00:55:06;14.23;;;8.20;;
1010;SDS011;494;48.744;10.106;2023-05-01T00:57:35;14.90;;;7.77;;
1010;SDS011;494;48.744;10.106;2023-05-01T01:00:05;15.67;;;8.70;;
1010;SDS011;494;48.744;10.106;2023-05-01T01:02:39;15.50;;;8.63;;
1010;SDS011;494;48.744;10.106;2023-05-01T01:05:08;14.67;;;8.60;;
1010;SDS011;494;48.744;10.106;2023-05-01T01:07:40;15.00;;;8.50;;
1010;SDS011;494;48.744;10.106;2023-05-01T01:10:22;15.70;;;8.87;;
1010;SDS011;494;48.744;10.106;2023-05-01T01:13:03;14.40;;;8.50;;
1010;SDS011;494;48.744;10.106;2023-05-01T01:15:43;15.80;;;8.70;;
1010;SDS011;494;48.744;10.106;2023-05-01T01:18:22;15.13;;;8.50;;
1010;SDS011;494;48.744;10.106;2023-05-01T01:21:03;14.87;;;8.13;;
1010;SDS011;494;48.744;10.106;2023-05-01T01:27:22;15.47;;;8.67;;
1010;SDS011;494;48.744;10.106;2023-05-01T01:30:15;16.27;;;8.53;;
1010;SDS011;494;48.744;10.106;2023-05-01T01:33:51;14.57;;;8.47;;
1010;SDS011;494;48.744;10.106;2023-05-01T01:36:39;15.30;;;8.80;;
1010;SDS011;494;48.744;10.106;2023-05-01T01:39:22;14.07;;;8.10;;
1010;SDS011;494;48.744;10.106;2023-05-01T01:41:57;15.70;;;8.97;;
1010;SDS011;494;48.744;10.106;2023-05-01T01:44:29;15.57;;;9.00;;
1010;SDS011;494;48.744;10.106;2023-05-01T01:47:06;15.83;;;9.00;;
1010;SDS011;494;48.744;10.106;2023-05-01T01:49:41;17.47;;;9.23;;
1010;SDS011;494;48.744;10.106;2023-05-01T01:52:16;15.40;;;8.80;;
1010;SDS011;494;48.744;10.106;2023-05-01T01:54:49;16.83;;;9.27;;
1010;SDS011;494;48.744;10.106;2023-05-01T01:57:23;14.90;;;8.70;;
1010;SDS011;494;48.744;10.106;2023-05-01T01:59:55;15.93;;;9.00;;
1010;SDS011;494;48.744;10.106;2023-05-01T02:02:25;16.40;;;8.40;;
1010;SDS011;494;48.744;10.106;2023-05-01T02:04:58;14.20;;;7.90;;
1010;SDS011;494;48.744;10.106;2023-05-01T02:07:28;15.00;;;8.30;;
1010;SDS011;494;48.744;10.106;2023-05-01T02:09:58;17.77;;;9.27;;
1010;SDS011;494;48.744;10.106;2023-05-01T02:12:30;15.77;;;9.03;;
1010;SDS011;494;48.744;10.106;2023-05-01T02:15:01;16.00;;;8.97;;
1010;SDS011;494;48.744;10.106;2023-05-01T02:17:32;14.83;;;8.83;;
1010;SDS011;494;48.744;10.106;2023-05-01T02:20:06;14.50;;;9.17;;
1010;SDS011;494;48.744;10.106;2023-05-01T02:22:39;15.07;;;8.93;;
1010;SDS011;494;48.744;10.106;2023-05-01T02:25:09;16.00;;;9.47;;
1010;SDS011;494;48.744;10.106;2023-05-01T02:27:42;16.20;;;8.90;;
1010;SDS011;494;48.744;10.106;2023-05-01T02:30:18;15.40;;;9.27;;
1010;SDS011;494;48.744;10.106;2023-05-01T02:32:46;13.43;;;7.83;;
1010;SDS011;494;48.744;10.106;2023-05-01T02:35:21;14.10;;;8.70;;
1010;SDS011;494;48.744;10.106;2023-05-01T02:37:50;15.03;;;9.03;;
1010;SDS011;494;48.744;10.106;2023-05-01T02:40:19;14.80;;;8.97;;
1010;SDS011;494;48.744;10.106;2023-05-01T02:42:48;16.90;;;9.47;;
1010;SDS011;494;48.744;10.106;2023-05-01T02:45:20;15.30;;;9.40;;
1010;SDS011;494;48.744;10.106;2023-05-01T02:47:53;17.37;;;9.33;;
1010;SDS011;494;48.744;10.106;2023-05-01T02:50:29;15.00;;;9.60;;
1010;SDS011;494;48.744;10.106;2023-05-01T02:52:59;15.10;;;9.10;;
1010;SDS011;494;48.744;10.106;2023-05-01T02:55:28;16.13;;;8.97;;
1010;SDS011;494;48.744;10.106;2023-05-01T02:58:02;16.20;;;9.50;;
1010;SDS011;494;48.744;10.106;2023-05-01T03:00:32;16.50;;;9.80;;
1010;SDS011;494;48.744;10.106;2023-05-01T03:03:01;16.27;;;9.00;;
1010;SDS011;494;48.744;10.106;2023-05-01T03:05:31;19.20;;;10.10;;
1010;SDS011;494;48.744;10.106;2023-05-01T03:08:00;14.40;;;8.57;;
1010;SDS011;494;48.744;10.106;2023-05-01T03:10:31;15.97;;;8.93;;
1010;SDS011;494;48.744;10.106;2023-05-01T03:13:00;14.43;;;8.70;;
1010;SDS011;494;48.744;10.106;2023-05-01T03:15:29;15.30;;;8.93;;
1010;SDS011;494;48.744;10.106;2023-05-01T03:17:58;14.60;;;8.83;;
1010;SDS011;494;48.744;10.106;2023-05-01T03:20:28;14.60;;;9.37;;
1010;SDS011;494;48.744;10.106;2023-05-01T03:22:58;16.40;;;9.63;;
1010;SDS011;494;48.744;10.106;2023-05-01T03:25:27;15.47;;;9.27;;
1010;SDS011;494;48.744;10.106;2023-05-01T03:27:56;17.43;;;9.50;;
1010;SDS011;494;48.744;10.106;2023-05-01T03:30:24;14.60;;;8.50;;
1010;SDS011;494;48.744;10.106;2023-05-01T03:32:53;18.07;;;9.10;;
1010;SDS011;494;48.744;10.106;2023-05-01T03:35:22;15.90;;;9.30;;
1010;SDS011;494;48.744;10.106;2023-05-01T03:37:51;15.73;;;9.63;;
1010;SDS011;494;48.744;10.106;2023-05-01T03:40:21;15.17;;;9.23;;
1010;SDS011;494;48.744;10.106;2023-05-01T03:42:50;18.60;;;9.87;;
1010;SDS011;494;48.744;10.106;2023-05-01T03:45:18;15.90;;;9.60;;
1010;SDS011;494;48.744;10.106;2023-05-01T03:47:47;15.87;;;9.43;;
1010;SDS011;494;48.744;10.106;2023-05-01T03:50:16;16.07;;;9.70;;
1010;SDS011;494;48.744;10.106;2023-05-01T03:52:47;15.67;;;9.90;;
1010;SDS011;494;48.744;10.106;2023-05-01T03:55:17;16.40;;;9.87;;
1010;SDS011;494;48.744;10.106;2023-05-01T03:57:47;16.23;;;9.27;;
1010;SDS011;494;48.744;10.106;2023-05-01T04:00:16;15.80;;;9.57;;
1010;SDS011;494;48.744;10.106;2023-05-01T04:02:45;20.80;;;9.90;;
1010;SDS011;494;48.744;10.106;2023-05-01T04:05:16;16.17;;;8.80;;
1010;SDS011;494;48.744;10.106;2023-05-01T04:07:47;15.57;;;8.57;;
1010;SDS011;494;48.744;10.106;2023-05-01T04:10:16;19.50;;;9.57;;
1010;SDS011;494;48.744;10.106;2023-05-01T04:12:48;16.90;;;9.50;;
1010;SDS011;494;48.744;10.106;2023-05-01T04:15:17;14.33;;;8.60;;
1010;SDS011;494;48.744;10.106;2023-05-01T04:17:50;16.67;;;8.80;;
1010;SDS011;494;48.744;10.106;2023-05-01T04:20:24;14.83;;;9.33;;
1010;SDS011;494;48.744;10.106;2023-05-01T04:22:53;15.47;;;9.00;;
1010;SDS011;494;48.744;10.106;2023-05-01T04:25:22;16.17;;;8.20;;
1010;SDS011;494;48.744;10.106;2023-05-01T04:27:52;15.77;;;9.20;;
1010;SDS011;494;48.744;10.106;2023-05-01T04:30:22;14.23;;;9.00;;
1010;SDS011;494;48.744;10.106;2023-05-01T04:32:51;14.90;;;9.40;;
1010;SDS011;494;48.744;10.106;2023-05-01T04:35:21;15.70;;;8.97;;
1010;SDS011;494;48.744;10.106;2023-05-01T04:37:50;15.93;;;8.87;;
1010;SDS011;494;48.744;10.106;2023-05-01T04:40:19;14.07;;;9.03;;
1010;SDS011;494;48.744;10.106;2023-05-01T04:42:48;15.13;;;9.63;;
1010;SDS011;494;48.744;10.106;2023-05-01T04:45:18;14.10;;;8.60;;
1010;SDS011;494;48.744;10.106;2023-05-01T04:47:47;15.40;;;9.50;;
1010;SDS011;494;48.744;10.106;2023-05-01T04:50:16;14.63;;;9.07;;
1010;SDS011;494;48.744;10.106;2023-05-01T04:52:48;16.10;;;9.53;;
1010;SDS011;494;48.744;10.106;2023-05-01T04:55:18;15.60;;;9.67;;
1010;SDS011;494;48.744;10.106;2023-05-01T04:57:46;17.13;;;9.60;;
1010;SDS011;494;48.744;10.106;2023-05-01T05:00:15;15.73;;;9.50;;
1010;SDS011;494;48.744;10.106;2023-05-01T05:02:46;13.97;;;9.07;;
1010;SDS011;494;48.744;10.106;2023-05-01T05:05:15;14.83;;;9.10;;
1010;SDS011;494;48.744;10.106;2023-05-01T05:07:44;15.13;;;9.50;;
1010;SDS011;494;48.744;10.106;2023-05-01T05:10:13;15.40;;;10.03;;
1010;SDS011;494;48.744;10.106;2023-05-01T05:12:42;17.07;;;9.63;;
1010;SDS011;494;48.744;10.106;2023-05-01T05:15:11;19.80;;;10.10;;
1010;SDS011;494;48.744;10.106;2023-05-01T05:17:39;17.03;;;10.17;;
1010;SDS011;494;48.744;10.106;2023-05-01T05:20:10;16.30;;;10.43;;
1010;SDS011;494;48.744;10.106;2023-05-01T05:22:40;15.50;;;9.20;;
1010;SDS011;494;48.744;10.106;2023-05-01T05:25:08;19.20;;;10.27;;
1010;SDS011;494;48.744;10.106;2023-05-01T05:27:38;17.67;;;9.90;;
1010;SDS011;494;48.744;10.106;2023-05-01T05:30:07;16.40;;;10.10;;
1010;SDS011;494;48.744;10.106;2023-05-01T05:32:37;16.17;;;10.37;;
1010;SDS011;494;48.744;10.106;2023-05-01T05:35:06;16.27;;;10.03;;
1010;SDS011;494;48.744;10.106;2023-05-01T05:37:36;18.77;;;10.70;;
1010;SDS011;494;48.744;10.106;2023-05-01T05:40:06;14.17;;;8.90;;
1010;SDS011;494;48.744;10.106;2023-05-01T05:42:36;14.63;;;9.60;;
1010;SDS011;494;48.744;10.106;2023-05-01T05:45:06;15.07;;;9.23;;
1010;SDS011;494;48.744;10.106;2023-05-01T05:47:36;15.77;;;9.00;;
1010;SDS011;494;48.744;10.106;2023-05-01T05:50:06;15.60;;;9.30;;
1010;SDS011;494;48.744;10.106;2023-05-01T05:52:37;16.60;;;10.00;;
1010;SDS011;494;48.744;10.106;2023-05-01T05:55:07;16.90;;;9.87;;
1010;SDS011;494;48.744;10.106;2023-05-01T05:57:37;16.70;;;9.87;;
1010;SDS011;494;48.744;10.106;2023-05-01T06:00:06;15.33;;;9.80;;
1010;SDS011;494;48.744;10.106;2023-05-01T06:02:36;15.90;;;10.87;;
1010;SDS011;494;48.744;10.106;2023-05-01T06:05:08;17.63;;;10.73;;
1010;SDS011;494;48.744;10.106;2023-05-01T06:07:40;16.17;;;10.37;;
1010;SDS011;494;48.744;10.106;2023-05-01T06:10:09;17.77;;;11.70;;
1010;SDS011;494;48.744;10.106;2023-05-01T06:12:38;19.03;;;12.53;;
1010;SDS011;494;48.744;10.106;2023-05-01T06:15:24;17.57;;;11.13;;
1010;SDS011;494;48.744;10.106;2023-05-01T06:17:53;18.07;;;13.10;;
1010;SDS011;494;48.744;10.106;2023-05-01T06:20:26;18.40;;;14.50;;
1010;SDS011;494;48.744;10.106;2023-05-01T06:22:56;18.50;;;14.40;;
1010;SDS011;494;48.744;10.106;2023-05-01T06:25:25;18.80;;;14.93;;
1010;SDS011;494;48.744;10.106;2023-05-01T06:27:54;23.47;;;16.77;;
1010;SDS011;494;48.744;10.106;2023-05-01T06:30:23;22.67;;;17.90;;
1010;SDS011;494;48.744;10.106;2023-05-01T06:32:52;21.90;;;17.10;;
1010;SDS011;494;48.744;10.106;2023-05-01T06:35:21;25.47;;;18.37;;
1010;SDS011;494;48.744;10.106;2023-05-01T06:37:50;23.77;;;17.67;;
1010;SDS011;494;48.744;10.106;2023-05-01T06:40:22;24.00;;;18.77;;
1010;SDS011;494;48.744;10.106;2023-05-01T06:42:53;22.33;;;17.27;;
1010;SDS011;494;48.744;10.106;2023-05-01T06:45:21;22.80;;;17.80;;
1010;SDS011;494;48.744;10.106;2023-05-01T06:47:50;22.60;;;18.20;;
1010;SDS011;494;48.744;10.106;2023-05-01T06:50:19;23.70;;;18.47;;
1010;SDS011;494;48.744;10.106;2023-05-01T06:52:48;21.30;;;17.60;;
1010;SDS011;494;48.744;10.106;2023-05-01T06:55:17;22.40;;;17.37;;
1010;SDS011;494;48.744;10.106;2023-05-01T06:57:52;21.87;;;17.63;;
1010;SDS011;494;48.744;10.106;2023-05-01T07:00:21;22.60;;;17.97;;
1010;SDS011;494;48.744;10.106;2023-05-01T07:02:51;22.97;;;17.97;;
1010;SDS011;494;48.744;10.106;2023-05-01T07:05:20;24.40;;;18.90;;
1010;SDS011;494;48.744;10.106;2023-05-01T07:07:50;22.53;;;18.10;;
1010;SDS011;494;48.744;10.106;2023-05-01T07:10:27;23.23;;;18.30;;
1010;SDS011;494;48.744;10.106;2023-05-01T07:12:58;23.77;;;18.73;;
1010;SDS011;494;48.744;10.106;2023-05-01T07:15:26;24.93;;;18.60;;
1010;SDS011;494;48.744;10.106;2023-05-01T07:17:56;24.07;;;18.13;;
1010;SDS011;494;48.744;10.106;2023-05-01T07:20:28;26.13;;;18.10;;
1010;SDS011;494;48.744;10.106;2023-05-01T07:22:57;27.10;;;20.13;;
1010;SDS011;494;48.744;10.106;2023-05-01T07:25:26;25.97;;;19.50;;
1010;SDS011;494;48.744;10.106;2023-05-01T07:27:58;23.00;;;19.03;;
1010;SDS011;494;48.744;10.106;2023-05-01T07:30:30;25.27;;;20.33;;
1010;SDS011;494;48.744;10.106;2023-05-01T07:32:58;29.30;;;23.27;;
1010;SDS011;494;48.744;10.106;2023-05-01T07:35:28;28.67;;;22.20;;
1010;SDS011;494;48.744;10.106;2023-05-01T07:37:56;25.87;;;20.70;;
1010;SDS011;494;48.744;10.106;2023-05-01T07:40:25;23.40;;;18.00;;
1010;SDS011;494;48.744;10.106;2023-05-01T07:42:54;22.60;;;17.80;;
1010;SDS011;494;48.744;10.106;2023-05-01T07:45:25;24.13;;;16.60;;
1010;SDS011;494;48.744;10.106;2023-05-01T07:47:54;26.40;;;18.03;;
1010;SDS011;494;48.744;10.106;2023-05-01T07:50:23;23.63;;;16.47;;
1010;SDS011;494;48.744;10.106;2023-05-01T07:52:52;22.80;;;18.27;;
1010;SDS011;494;48.744;10.106;2023-05-01T07:55:22;26.00;;;19.07;;
1010;SDS011;494;48.744;10.106;2023-05-01T07:57:52;26.63;;;18.43;;
1010;SDS011;494;48.744;10.106;2023-05-01T08:00:21;21.20;;;16.50;;
1010;SDS011;494;48.744;10.106;2023-05-01T08:02:52;21.77;;;14.43;;
1010;SDS011;494;48.744;10.106;2023-05-01T08:05:22;21.60;;;13.50;;
1010;SDS011;494;48.744;10.106;2023-05-01T08:07:51;20.50;;;13.87;;
1010;SDS011;494;48.744;10.106;2023-05-01T08:10:20;19.90;;;13.50;;
1010;SDS011;494;48.744;10.106;2023-05-01T08:12:49;24.43;;;14.83;;
1010;SDS011;494;48.744;10.106;2023-05-01T08:15:18;21.80;;;14.60;;
1010;SDS011;494;48.744;10.106;2023-05-01T08:17:47;22.90;;;14.70;;
1010;SDS011;494;48.744;10.106;2023-05-01T08:20:18;20.77;;;13.63;;
1010;SDS011;494;48.744;10.106;2023-05-01T08:22:47;23.27;;;14.30;;
1010;SDS011;494;48.744;10.106;2023-05-01T08:25:16;26.13;;;14.93;;
1010;SDS011;494;48.744;10.106;2023-05-01T08:27:46;22.27;;;15.10;;
1010;SDS011;494;48.744;10.106;2023-05-01T08:30:16;23.37;;;15.70;;
1010;SDS011;494;48.744;10.106;2023-05-01T08:32:45;22.60;;;14.73;;
1010;SDS011;494;48.744;10.106;2023-05-01T08:35:15;22.23;;;14.93;;
1010;SDS011;494;48.744;10.106;2023-05-01T08:37:45;21.80;;;13.97;;
1010;SDS011;494;48.744;10.106;2023-05-01T08:40:14;23.33;;;14.43;;
1010;SDS011;494;48.744;10.106;2023-05-01T08:42:46;19.93;;;13.17;;
1010;SDS011;494;48.744;10.106;2023-05-01T08:45:15;19.87;;;13.30;;
1010;SDS011;494;48.744;10.106;2023-05-01T08:47:47;20.90;;;13.07;;
1010;SDS011;494;48.744;10.106;2023-05-01T08:50:18;21.63;;;13.60;;
1010;SDS011;494;48.744;10.106;2023-05-01T08:52:51;23.93;;;14.20;;
1010;SDS011;494;48.744;10.106;2023-05-01T08:55:21;20.63;;;14.10;;
1010;SDS011;494;48.744;10.106;2023-05-01T08:57:56;19.80;;;13.83;;
1010;SDS011;494;48.744;10.106;2023-05-01T09:00:26;20.33;;;13.00;;
1010;SDS011;494;48.744;10.106;2023-05-01T09:02:58;20.70;;;13.97;;
1010;SDS011;494;48.744;10.106;2023-05-01T09:05:30;22.97;;;14.10;;
1010;SDS011;494;48.744;10.106;2023-05-01T09:08:02;20.57;;;13.73;;
1010;SDS011;494;48.744;10.106;2023-05-01T09:10:32;19.87;;;13.00;;
1010;SDS011;494;48.744;10.106;2023-05-01T09:13:04;20.20;;;13.83;;
1010;SDS011;494;48.744;10.106;2023-05-01T09:15:35;20.00;;;13.87;;
1010;SDS011;494;48.744;10.106;2023-05-01T09:18:04;21.10;;;14.13;;
1010;SDS011;494;48.744;10.106;2023-05-01T09:20:37;20.57;;;14.10;;
1010;SDS011;494;48.744;10.106;2023-05-01T09:23:09;23.27;;;14.40;;
1010;SDS011;494;48.744;10.106;2023-05-01T09:25:39;22.83;;;14.40;;
1010;SDS011;494;48.744;10.106;2023-05-01T09:28:10;20.83;;;13.77;;
1010;SDS011;494;48.744;10.106;2023-05-01T09:30:39;23.00;;;15.60;;
1010;SDS011;494;48.744;10.106;2023-05-01T09:33:09;21.37;;;14.93;;
1010;SDS011;494;48.744;10.106;2023-05-01T09:35:49;19.70;;;12.93;;
1010;SDS011;494;48.744;10.106;2023-05-01T09:38:22;24.00;;;14.60;;
1010;SDS011;494;48.744;10.106;2023-05-01T09:40:53;20.70;;;14.57;;
1010;SDS011;494;48.744;10.106;2023-05-01T09:43:30;20.93;;;14.10;;
1010;SDS011;494;48.744;10.106;2023-05-01T09:46:03;25.13;;;14.83;;
1010;SDS011;494;48.744;10.106;2023-05-01T09:48:36;23.67;;;13.80;;
1010;SDS011;494;48.744;10.106;2023-05-01T09:51:21;22.23;;;13.70;;
1010;SDS011;494;48.744;10.106;2023-05-01T09:53:55;19.00;;;13.00;;
1010;SDS011;494;48.744;10.106;2023-05-01T09:56:26;20.93;;;13.70;;
1010;SDS011;494;48.744;10.106;2023-05-01T09:58:58;21.10;;;13.47;;
1010;SDS011;494;48.744;10.106;2023-05-01T10:01:44;20.07;;;15.07;;
1010;SDS011;494;48.744;10.106;2023-05-01T10:04:16;20.33;;;15.23;;
1010;SDS011;494;48.744;10.106;2023-05-01T10:06:56;22.13;;;16.93;;
1010;SDS011;494;48.744;10.106;2023-05-01T10:09:28;18.80;;;12.33;;
1010;SDS011;494;48.744;10.106;2023-05-01T10:11:57;19.93;;;13.53;;
1010;SDS011;494;48.744;10.106;2023-05-01T10:14:27;19.80;;;13.03;;
1010;SDS011;494;48.744;10.106;2023-05-01T10:16:59;24.17;;;14.67;;
1010;SDS011;494;48.744;10.106;2023-05-01T10:19:34;20.57;;;12.60;;
1010;SDS011;494;48.744;10.106;2023-05-01T10:22:03;21.07;;;13.40;;
1010;SDS011;494;48.744;10.106;2023-05-01T10:24:33;18.77;;;12.57;;
1010;SDS011;494;48.744;10.106;2023-05-01T10:27:05;20.50;;;14.50;;
1010;SDS011;494;48.744;10.106;2023-05-01T10:29:36;19.30;;;13.50;;
1010;SDS011;494;48.744;10.106;2023-05-01T10:32:07;18.93;;;12.60;;
1010;SDS011;494;48.744;10.106;2023-05-01T10:34:37;18.17;;;12.30;;
1010;SDS011;494;48.744;10.106;2023-05-01T10:37:16;20.93;;;11.80;;
1010;SDS011;494;48.744;10.106;2023-05-01T10:39:57;17.70;;;13.00;;
1010;SDS011;494;48.744;10.106;2023-05-01T10:42:26;19.20;;;12.80;;
1010;SDS011;494;48.744;10.106;2023-05-01T10:44:56;17.63;;;12.33;;
1010;SDS011;494;48.744;10.106;2023-05-01T10:48:03;18.77;;;11.93;;
1010;SDS011;494;48.744;10.106;2023-05-01T10:50:33;21.90;;;12.80;;
1010;SDS011;494;48.744;10.106;2023-05-01T10:53:17;17.10;;;11.30;;
1010;SDS011;494;48.744;10.106;2023-05-01T10:55:47;18.60;;;11.93;;
1010;SDS011;494;48.744;10.106;2023-05-01T11:01:42;17.60;;;11.90;;
1010;SDS011;494;48.744;10.106;2023-05-01T11:07:23;17.90;;;11.67;;
1010;SDS011;494;48.744;10.106;2023-05-01T11:09:54;17.90;;;12.40;;
1010;SDS011;494;48.744;10.106;2023-05-01T11:15:30;16.53;;;11.20;;
1010;SDS011;494;48.744;10.106;2023-05-01T11:18:05;18.10;;;12.10;;
1010;SDS011;494;48.744;10.106;2023-05-01T11:20:48;18.17;;;10.90;;
1010;SDS011;494;48.744;10.106;2023-05-01T11:23:19;17.53;;;10.80;;
1010;SDS011;494;48.744;10.106;2023-05-01T11:25:49;16.60;;;10.60;;
1010;SDS011;494;48.744;10.106;2023-05-01T11:28:30;15.70;;;10.10;;
1010;SDS011;494;48.744;10.106;2023-05-01T11:31:00;15.40;;;9.50;;
1010;SDS011;494;48.744;10.106;2023-05-01T11:33:31;16.47;;;10.50;;
1010;SDS011;494;48.744;10.106;2023-05-01T11:36:01;17.40;;;9.90;;
1010;SDS011;494;48.744;10.106;2023-05-01T11:38:30;14.73;;;9.20;;
1010;SDS011;494;48.744;10.106;2023-05-01T11:40:59;14.30;;;8.97;;
1010;SDS011;494;48.744;10.106;2023-05-01T11:43:31;17.67;;;11.97;;
1010;SDS011;494;48.744;10.106;2023-05-01T11:45:59;16.17;;;11.70;;
1010;SDS011;494;48.744;10.106;2023-05-01T11:48:31;16.77;;;12.90;;
1010;SDS011;494;48.744;10.106;2023-05-01T11:51:00;18.20;;;12.70;;
1010;SDS011;494;48.744;10.106;2023-05-01T11:53:39;19.30;;;12.83;;
1010;SDS011;494;48.744;10.106;2023-05-01T11:56:17;15.37;;;11.30;;
1010;SDS011;494;48.744;10.106;2023-05-01T11:58:50;15.03;;;11.57;;
1010;SDS011;494;48.744;10.106;2023-05-01T12:01:20;14.17;;;9.60;;
1010;SDS011;494;48.744;10.106;2023-05-01T12:03:51;15.30;;;10.80;;
1010;SDS011;494;48.744;10.106;2023-05-01T12:06:20;18.30;;;12.50;;
1010;SDS011;494;48.744;10.106;2023-05-01T12:08:49;16.83;;;8.37;;
1010;SDS011;494;48.744;10.106;2023-05-01T12:11:18;13.17;;;7.53;;
1010;SDS011;494;48.744;10.106;2023-05-01T12:13:49;14.43;;;8.33;;
1010;SDS011;494;48.744;10.106;2023-05-01T12:16:18;13.57;;;7.90;;
1010;SDS011;494;48.744;10.106;2023-05-01T12:18:51;13.80;;;7.97;;
1010;SDS011;494;48.744;10.106;2023-05-01T12:21:20;13.57;;;7.60;;
1010;SDS011;494;48.744;10.106;2023-05-01T12:23:50;14.40;;;8.03;;
1010;SDS011;494;48.744;10.106;2023-05-01T12:26:20;13.90;;;7.70;;
1010;SDS011;494;48.744;10.106;2023-05-01T12:28:57;12.03;;;6.97;;
1010;SDS011;494;48.744;10.106;2023-05-01T12:31:28;15.13;;;8.20;;
1010;SDS011;494;48.744;10.106;2023-05-01T12:33:58;16.00;;;8.00;;
1010;SDS011;494;48.744;10.106;2023-05-01T12:36:29;15.73;;;9.90;;
1010;SDS011;494;48.744;10.106;2023-05-01T12:39:00;13.50;;;7.67;;
1010;SDS011;494;48.744;10.106;2023-05-01T12:41:31;13.90;;;8.50;;
1010;SDS011;494;48.744;10.106;2023-05-01T12:44:13;14.50;;;9.10;;
1010;SDS011;494;48.744;10.106;2023-05-01T12:46:54;15.17;;;10.40;;
1010;SDS011;494;48.744;10.106;2023-05-01T12:49:29;14.77;;;11.30;;
1010;SDS011;494;48.744;10.106;2023-05-01T12:51:59;16.50;;;10.90;;
1010;SDS011;494;48.744;10.106;2023-05-01T12:54:29;13.90;;;11.37;;
1010;SDS011;494;48.744;10.106;2023-05-01T12:57:06;16.07;;;11.13;;
1010;SDS011;494;48.744;10.106;2023-05-01T12:59:37;15.83;;;11.23;;
1010;SDS011;494;48.744;10.106;2023-05-01T13:02:08;14.23;;;7.97;;
1010;SDS011;494;48.744;10.106;2023-05-01T13:04:40;13.43;;;7.83;;
1010;SDS011;494;48.744;10.106;2023-05-01T13:07:12;13.40;;;7.77;;
1010;SDS011;494;48.744;10.106;2023-05-01T13:09:49;16.73;;;8.00;;
1010;SDS011;494;48.744;10.106;2023-05-01T13:12:20;15.03;;;8.00;;
1010;SDS011;494;48.744;10.106;2023-05-01T13:14:52;14.93;;;8.17;;
1010;SDS011;494;48.744;10.106;2023-05-01T13:17:22;13.50;;;8.33;;
1010;SDS011;494;48.744;10.106;2023-05-01T13:19:54;15.70;;;9.50;;
1010;SDS011;494;48.744;10.106;2023-05-01T13:22:28;14.33;;;8.57;;
1010;SDS011;494;48.744;10.106;2023-05-01T13:25:00;15.03;;;7.87;;
1010;SDS011;494;48.744;10.106;2023-05-01T13:27:31;14.33;;;7.30;;
1010;SDS011;494;48.744;10.106;2023-05-01T13:30:00;13.20;;;7.50;;
1010;SDS011;494;48.744;10.106;2023-05-01T13:32:29;13.20;;;7.67;;
1010;SDS011;494;48.744;10.106;2023-05-01T13:35:00;13.63;;;7.60;;
1010;SDS011;494;48.744;10.106;2023-05-01T13:37:31;16.00;;;8.73;;
1010;SDS011;494;48.744;10.106;2023-05-01T13:39:59;12.80;;;7.50;;
1010;SDS011;494;48.744;10.106;2023-05-01T13:42:32;15.03;;;7.87;;
1010;SDS011;494;48.744;10.106;2023-05-01T13:45:00;13.67;;;7.83;;
1010;SDS011;494;48.744;10.106;2023-05-01T13:47:31;13.97;;;7.23;;
1010;SDS011;494;48.744;10.106;2023-05-01T13:50:09;14.67;;;7.80;;
1010;SDS011;494;48.744;10.106;2023-05-01T13:52:41;12.77;;;6.87;;
1010;SDS011;494;48.744;10.106;2023-05-01T13:55:12;13.33;;;7.30;;
1010;SDS011;494;48.744;10.106;2023-05-01T13:57:41;13.37;;;7.07;;
1010;SDS011;494;48.744;10.106;2023-05-01T14:00:13;13.93;;;7.23;;
1010;SDS011;494;48.744;10.106;2023-05-01T14:02:45;12.90;;;7.10;;
1010;SDS011;494;48.744;10.106;2023-05-01T14:05:17;14.83;;;8.00;;
1010;SDS011;494;48.744;10.106;2023-05-01T14:07:53;13.20;;;7.30;;
1010;SDS011;494;48.744;10.106;2023-05-01T14:10:25;13.03;;;7.70;;
1010;SDS011;494;48.744;10.106;2023-05-01T14:12:56;14.83;;;8.30;;
1010;SDS011;494;48.744;10.106;2023-05-01T14:15:25;13.53;;;7.63;;
1010;SDS011;494;48.744;10.106;2023-05-01T14:17:55;13.23;;;7.63;;
1010;SDS011;494;48.744;10.106;2023-05-01T14:20:28;14.60;;;8.60;;
1010;SDS011;494;48.744;10.106;2023-05-01T14:22:58;19.50;;;14.50;;
1010;SDS011;494;48.744;10.106;2023-05-01T14:25:27;45.47;;;38.00;;
1010;SDS011;494;48.744;10.106;2023-05-01T14:28:00;15.20;;;7.83;;
1010;SDS011;494;48.744;10.106;2023-05-01T14:30:36;12.87;;;7.23;;
1010;SDS011;494;48.744;10.106;2023-05-01T14:33:07;12.50;;;6.87;;
1010;SDS011;494;48.744;10.106;2023-05-01T14:35:42;11.87;;;6.20;;
1010;SDS011;494;48.744;10.106;2023-05-01T14:38:16;15.37;;;8.20;;
1010;SDS011;494;48.744;10.106;2023-05-01T14:40:48;13.87;;;8.13;;
1010;SDS011;494;48.744;10.106;2023-05-01T14:43:19;13.50;;;7.80;;
1010;SDS011;494;48.744;10.106;2023-05-01T14:45:49;13.40;;;7.87;;
1010;SDS011;494;48.744;10.106;2023-05-01T14:48:19;13.93;;;7.90;;
1010;SDS011;494;48.744;10.106;2023-05-01T14:50:51;13.97;;;7.63;;
1010;SDS011;494;48.744;10.106;2023-05-01T14:53:24;13.70;;;7.20;;
1010;SDS011;494;48.744;10.106;2023-05-01T14:55:57;14.03;;;8.30;;
1010;SDS011;494;48.744;10.106;2023-05-01T14:58:26;14.73;;;7.43;;
1010;SDS011;494;48.744;10.106;2023-05-01T15:00:55;14.73;;;7.90;;
1010;SDS011;494;48.744;10.106;2023-05-01T15:03:24;13.20;;;7.80;;
1010;SDS011;494;48.744;10.106;2023-05-01T15:05:54;14.07;;;7.97;;
1010;SDS011;494;48.744;10.106;2023-05-01T15:08:24;14.30;;;7.87;;
1010;SDS011;494;48.744;10.106;2023-05-01T15:10:53;13.77;;;7.33;;
1010;SDS011;494;48.744;10.106;2023-05-01T15:13:23;19.27;;;7.90;;
1010;SDS011;494;48.744;10.106;2023-05-01T15:15:52;12.73;;;6.90;;
1010;SDS011;494;48.744;10.106;2023-05-01T15:18:23;14.07;;;7.83;;
1010;SDS011;494;48.744;10.106;2023-05-01T15:20:51;14.57;;;7.60;;
1010;SDS011;494;48.744;10.106;2023-05-01T15:23:22;14.07;;;7.50;;
1010;SDS011;494;48.744;10.106;2023-05-01T15:25:52;13.00;;;7.50;;
1010;SDS011;494;48.744;10.106;2023-05-01T15:28:22;13.53;;;7.10;;
1010;SDS011;494;48.744;10.106;2023-05-01T15:30:52;14.77;;;7.73;;
1010;SDS011;494;48.744;10.106;2023-05-01T15:33:21;15.23;;;7.93;;